Big Stone Pride — WDB4762 — position and weather

sailwx.info

Track history (hours):
 
Tides and Currents Weather Stations Pressure Air Temp Water Temp Dewpoint Dewpoint Depression Visibility Wind Speed Wind Dir Waves Ship Positions

Big Stone Pride

Owner: DELAWARE BAY LAUNCH SERVICE INC, MILFORD, DE. More information available from US FCC via Universal Licensing System and Coast Guard Vessel Documentation Center.

Last reported at 2018-Jun-18 14:06 UTC. Time now 2018-Jun-20 20:43 UTC.
Position N 38°55' W 075°13'.

Length 19 m; draft 1 m.

Type: Passenger vessel. MMSI: 366902060.

Date/timePositionNaut miles runAvg speedWind from/ knotsBaromVisibWave heightAir tempDewpointWater temp
2018-Jun-18 14:06N 38°55' W 075°13'221.1
2018-Jun-18 14:00N 38°54' W 075°11'5 9.6
2018-Jun-18 13:30N 38°59' W 075°12'6 8.2
2018-Jun-18 12:49N 38°56' W 075°19'  
2018-Jun-15 11:58N 38°50' W 075°04'1021.0
2018-Jun-15 11:29N 38°56' W 075°15'4 0.1
2018-Jun-13 15:00N 38°59' W 075°12'0 0.1
2018-Jun-13 14:22N 38°59' W 075°13'6 2.3
2018-Jun-13 11:53N 38°56' W 075°19'0 0.0
2018-Jun-13 06:07N 38°56' W 075°19'0 0.0
2018-Jun-13 05:55N 38°56' W 075°19'0 0.0
2018-Jun-13 05:15N 38°56' W 075°19'0 0.0
2018-Jun-13 04:13N 38°56' W 075°19'0 0.0
2018-Jun-13 03:55N 38°56' W 075°19'0 0.0
2018-Jun-13 03:29N 38°56' W 075°19'0 0.0
2018-Jun-13 02:53N 38°56' W 075°19'0 0.0
2018-Jun-13 02:30N 38°56' W 075°19'0 0.0
2018-Jun-13 01:59N 38°56' W 075°19'0 0.0
2018-Jun-13 01:29N 38°56' W 075°19'0 0.0
2018-Jun-13 00:59N 38°56' W 075°19'0 0.0
2018-Jun-13 00:28N 38°56' W 075°19'0 0.0
2018-Jun-12 23:59N 38°56' W 075°19'0 0.0
2018-Jun-12 23:29N 38°56' W 075°19'0 0.0
2018-Jun-12 23:00N 38°56' W 075°19'0 0.0
2018-Jun-12 22:27N 38°56' W 075°19'0 0.0
2018-Jun-12 20:40N 38°56' W 075°19'0 0.0
2018-Jun-12 20:13N 38°56' W 075°19'0 0.0
2018-Jun-12 19:46N 38°56' W 075°19'0 0.0
2018-Jun-12 17:03N 38°56' W 075°19'0 0.0
2018-Jun-12 17:00N 38°56' W 075°19'0 0.0
2018-Jun-12 16:29N 38°56' W 075°19'0 0.0
2018-Jun-12 15:54N 38°56' W 075°19'0 0.0
2018-Jun-12 15:22N 38°56' W 075°19'0 0.0
2018-Jun-12 14:48N 38°56' W 075°19'0 0.0
2018-Jun-12 14:22N 38°56' W 075°19'0 0.0
2018-Jun-12 13:51N 38°56' W 075°19'0 0.0
2018-Jun-12 13:29N 38°56' W 075°19'0 0.0
2018-Jun-12 13:00N 38°56' W 075°19'0 0.0
2018-Jun-12 12:31N 38°56' W 075°19'0 0.0
2018-Jun-12 12:01N 38°56' W 075°19'0 0.0
2018-Jun-12 11:29N 38°56' W 075°19'0 0.0
2018-Jun-12 11:00N 38°56' W 075°19'0 0.0
2018-Jun-12 10:30N 38°56' W 075°19'0 0.0
2018-Jun-12 10:01N 38°56' W 075°19'0 0.0
2018-Jun-12 09:30N 38°56' W 075°19'0 0.0
2018-Jun-12 08:58N 38°56' W 075°19'0 0.0
2018-Jun-12 08:28N 38°56' W 075°19'0 0.0
2018-Jun-12 07:56N 38°56' W 075°19'0 0.0
2018-Jun-12 07:28N 38°56' W 075°19'0 0.0
2018-Jun-12 06:57N 38°56' W 075°19'0 0.0
2018-Jun-12 06:30N 38°56' W 075°19'0 0.0
2018-Jun-12 05:57N 38°56' W 075°19'0 0.0
2018-Jun-12 05:30N 38°56' W 075°19'0 0.0
2018-Jun-12 04:52N 38°56' W 075°19'0 0.0
2018-Jun-12 04:26N 38°56' W 075°19'0 0.0
2018-Jun-12 03:58N 38°56' W 075°19'0 0.0
2018-Jun-12 03:27N 38°56' W 075°19'0 0.0
2018-Jun-12 02:54N 38°56' W 075°19'0 0.0
2018-Jun-12 02:30N 38°56' W 075°19'0 0.0
2018-Jun-12 01:50N 38°56' W 075°19'0 0.0
2018-Jun-12 01:30N 38°56' W 075°19'0 0.0
2018-Jun-12 00:58N 38°56' W 075°19'0 0.0
2018-Jun-12 00:30N 38°56' W 075°19'0 0.0
2018-Jun-11 23:52N 38°56' W 075°19'0 0.0
2018-Jun-11 23:30N 38°56' W 075°19'0 0.0
2018-Jun-11 21:34N 38°56' W 075°19'0 0.0
2018-Jun-11 17:58N 38°56' W 075°19'5 1.0
2018-Jun-11 13:10N 38°58' W 075°13'  
Track history (hours):
 
Tides and Currents Weather Stations Pressure Air Temp Water Temp Dewpoint Dewpoint Depression Visibility Wind Speed Wind Dir Waves Ship Positions

Big Stone Pride

Owner: DELAWARE BAY LAUNCH SERVICE INC, MILFORD, DE. More information available from US FCC via Universal Licensing System and Coast Guard Vessel Documentation Center.

Last reported at 2018-Jun-18 14:06 UTC. Time now 2018-Jun-20 20:43 UTC.
Position N 38°55' W 075°13'.

Length 19 m; draft 1 m.

Type: Passenger vessel. MMSI: 366902060.

Date/timePositionNaut miles runAvg speedWind from/ knotsBaromVisibWave heightAir tempDewpointWater temp
2018-Jun-18 14:06N 38°55' W 075°13'221.1
2018-Jun-18 14:00N 38°54' W 075°11'5 9.6
2018-Jun-18 13:30N 38°59' W 075°12'6 8.2
2018-Jun-18 12:49N 38°56' W 075°19'  
2018-Jun-15 11:58N 38°50' W 075°04'1021.0
2018-Jun-15 11:29N 38°56' W 075°15'4 0.1
2018-Jun-13 15:00N 38°59' W 075°12'0 0.1
2018-Jun-13 14:22N 38°59' W 075°13'6 2.3
2018-Jun-13 11:53N 38°56' W 075°19'0 0.0
2018-Jun-13 06:07N 38°56' W 075°19'0 0.0
2018-Jun-13 05:55N 38°56' W 075°19'0 0.0
2018-Jun-13 05:15N 38°56' W 075°19'0 0.0
2018-Jun-13 04:13N 38°56' W 075°19'0 0.0
2018-Jun-13 03:55N 38°56' W 075°19'0 0.0
2018-Jun-13 03:29N 38°56' W 075°19'0 0.0
2018-Jun-13 02:53N 38°56' W 075°19'0 0.0
2018-Jun-13 02:30N 38°56' W 075°19'0 0.0
2018-Jun-13 01:59N 38°56' W 075°19'0 0.0
2018-Jun-13 01:29N 38°56' W 075°19'0 0.0
2018-Jun-13 00:59N 38°56' W 075°19'0 0.0
2018-Jun-13 00:28N 38°56' W 075°19'0 0.0
2018-Jun-12 23:59N 38°56' W 075°19'0 0.0
2018-Jun-12 23:29N 38°56' W 075°19'0 0.0
2018-Jun-12 23:00N 38°56' W 075°19'0 0.0
2018-Jun-12 22:27N 38°56' W 075°19'0 0.0
2018-Jun-12 20:40N 38°56' W 075°19'0 0.0
2018-Jun-12 20:13N 38°56' W 075°19'0 0.0
2018-Jun-12 19:46N 38°56' W 075°19'0 0.0
2018-Jun-12 17:03N 38°56' W 075°19'0 0.0
2018-Jun-12 17:00N 38°56' W 075°19'0 0.0
2018-Jun-12 16:29N 38°56' W 075°19'0 0.0
2018-Jun-12 15:54N 38°56' W 075°19'0 0.0
2018-Jun-12 15:22N 38°56' W 075°19'0 0.0
2018-Jun-12 14:48N 38°56' W 075°19'0 0.0
2018-Jun-12 14:22N 38°56' W 075°19'0 0.0
2018-Jun-12 13:51N 38°56' W 075°19'0 0.0
2018-Jun-12 13:29N 38°56' W 075°19'0 0.0
2018-Jun-12 13:00N 38°56' W 075°19'0 0.0
2018-Jun-12 12:31N 38°56' W 075°19'0 0.0
2018-Jun-12 12:01N 38°56' W 075°19'0 0.0
2018-Jun-12 11:29N 38°56' W 075°19'0 0.0
2018-Jun-12 11:00N 38°56' W 075°19'0 0.0
2018-Jun-12 10:30N 38°56' W 075°19'0 0.0
2018-Jun-12 10:01N 38°56' W 075°19'0 0.0
2018-Jun-12 09:30N 38°56' W 075°19'0 0.0
2018-Jun-12 08:58N 38°56' W 075°19'0 0.0
2018-Jun-12 08:28N 38°56' W 075°19'0 0.0
2018-Jun-12 07:56N 38°56' W 075°19'0 0.0
2018-Jun-12 07:28N 38°56' W 075°19'0 0.0
2018-Jun-12 06:57N 38°56' W 075°19'0 0.0
2018-Jun-12 06:30N 38°56' W 075°19'0 0.0
2018-Jun-12 05:57N 38°56' W 075°19'0 0.0
2018-Jun-12 05:30N 38°56' W 075°19'0 0.0
2018-Jun-12 04:52N 38°56' W 075°19'0 0.0
2018-Jun-12 04:26N 38°56' W 075°19'0 0.0
2018-Jun-12 03:58N 38°56' W 075°19'0 0.0
2018-Jun-12 03:27N 38°56' W 075°19'0 0.0
2018-Jun-12 02:54N 38°56' W 075°19'0 0.0
2018-Jun-12 02:30N 38°56' W 075°19'0 0.0
2018-Jun-12 01:50N 38°56' W 075°19'0 0.0
2018-Jun-12 01:30N 38°56' W 075°19'0 0.0
2018-Jun-12 00:58N 38°56' W 075°19'0 0.0
2018-Jun-12 00:30N 38°56' W 075°19'0 0.0
2018-Jun-11 23:52N 38°56' W 075°19'0 0.0
2018-Jun-11 23:30N 38°56' W 075°19'0 0.0
2018-Jun-11 21:34N 38°56' W 075°19'0 0.0
2018-Jun-11 17:58N 38°56' W 075°19'5 1.0
2018-Jun-11 13:10N 38°58' W 075°13'  

Dump ship's entire track history